Terminal Aerodrome Forecast
Issued by NWS

Home | Current Version | Previous Version | Graphics & Text | Print | Product List | Glossary On
Versions: 1 2 3 4 5 6 7 8 9 10 11 12 13 14 15 16 17 18 19 20 21 22 23 24 25 26
000
FTUS45 KGGW 261731
TAFGDV
TAF
KGDV 261731Z 2618/2718 07009KT P6SM VCTS BKN100CB
     FM270300 08008KT P6SM VCTS SCT080CB
     FM271200 VRB05KT P6SM -SHRA BKN025=

USA.gov is the U.S. government's official web portal to all federal, state and local government web resources and services.